createdAt,value
2017-01-18T00:00:08.136Z,70.81
2017-01-18T00:01:07.619Z,70.65
2017-01-18T00:02:08.048Z,70.97
2017-01-18T00:03:07.569Z,72.37
2017-01-18T00:04:08.302Z,72.01
2017-01-18T00:05:08.198Z,71.72
2017-01-18T00:06:07.647Z,72.01
2017-01-18T00:07:08.126Z,71.88
2017-01-18T00:08:08.889Z,71.65
2017-01-18T00:09:08.378Z,71.37
2017-01-18T00:10:07.886Z,71.33
2017-01-18T00:11:08.354Z,70.81
2017-01-18T00:12:07.907Z,71.04
2017-01-18T00:13:08.525Z,71.27
2017-01-18T00:14:08.125Z,72.21
2017-01-18T00:15:07.616Z,71.94
2017-01-18T00:16:08.433Z,71.39
2017-01-18T00:17:08.033Z,71.52
2017-01-18T00:18:07.748Z,70.88
2017-01-18T00:19:08.286Z,71.50
2017-01-18T00:20:08.006Z,71.15
2017-01-18T00:21:07.624Z,72.26
2017-01-18T00:22:08.283Z,72.35
2017-01-18T00:23:07.939Z,71.82
2017-01-18T00:24:07.508Z,71.38
2017-01-18T00:25:07.991Z,72.03
2017-01-18T00:26:07.929Z,72.08
2017-01-18T00:27:08.740Z,72.53
2017-01-18T00:28:08.442Z,71.66
2017-01-18T00:29:07.926Z,72.16
2017-01-18T00:30:07.789Z,71.70
2017-01-18T00:31:07.679Z,71.33
2017-01-18T00:32:08.140Z,71.33
2017-01-18T00:33:07.941Z,70.50
2017-01-18T00:34:07.782Z,70.70
2017-01-18T00:35:08.256Z,71.11
2017-01-18T00:36:07.887Z,72.22
2017-01-18T00:37:08.401Z,71.83
2017-01-18T00:38:08.071Z,71.38
2017-01-18T00:39:07.602Z,71.03
2017-01-18T00:40:08.163Z,71.54
2017-01-18T00:41:07.993Z,71.60
2017-01-18T00:42:07.491Z,72.23
2017-01-18T00:43:08.209Z,73.11
2017-01-18T00:44:08.028Z,72.15
2017-01-18T00:45:07.815Z,71.61
2017-01-18T00:46:08.342Z,71.48
2017-01-18T00:47:07.828Z,71.89
2017-01-18T00:48:08.364Z,71.68
2017-01-18T00:49:08.171Z,72.39
2017-01-18T00:50:07.951Z,72.32
2017-01-18T00:51:07.487Z,71.04
2017-01-18T00:52:08.089Z,71.18
2017-01-18T00:53:08.257Z,71.32
2017-01-18T00:54:07.815Z,70.82
2017-01-18T00:55:08.278Z,70.66
2017-01-18T00:56:07.781Z,71.12
2017-01-18T00:57:08.390Z,72.05
2017-01-18T00:58:08.235Z,72.31
2017-01-18T00:59:07.789Z,71.80
2017-01-18T01:00:08.231Z,71.11
2017-01-18T01:01:08.009Z,71.37
2017-01-18T01:02:07.701Z,71.87
2017-01-18T01:03:08.546Z,71.24
2017-01-18T01:04:08.328Z,71.87
2017-01-18T01:05:07.933Z,71.30
2017-01-18T01:06:07.553Z,70.93
2017-01-18T01:07:08.358Z,71.12
2017-01-18T01:08:08.075Z,70.98
2017-01-18T01:09:07.601Z,70.36
2017-01-18T01:10:08.171Z,70.10
2017-01-18T01:11:07.704Z,69.75
2017-01-18T01:12:08.578Z,70.85
2017-01-18T01:13:08.431Z,70.98
2017-01-18T01:14:07.978Z,71.10
2017-01-18T01:15:07.913Z,70.89
2017-01-18T01:16:08.786Z,70.08
2017-01-18T01:17:08.442Z,70.50
2017-01-18T01:18:08.248Z,70.46
2017-01-18T01:19:08.160Z,69.92
2017-01-18T01:20:07.664Z,70.11
2017-01-18T01:21:08.429Z,70.46
2017-01-18T01:22:08.210Z,70.82
2017-01-18T01:23:07.656Z,71.41
2017-01-18T01:24:08.206Z,71.14
2017-01-18T01:25:07.663Z,71.05
2017-01-18T01:26:08.244Z,70.99
2017-01-18T01:27:07.585Z,70.43
2017-01-18T01:28:08.512Z,70.60
2017-01-18T01:29:08.060Z,69.95
2017-01-18T01:30:07.530Z,70.99
2017-01-18T01:31:08.155Z,70.46
2017-01-18T01:32:07.603Z,70.40
2017-01-18T01:33:08.155Z,71.18
2017-01-18T01:34:07.694Z,70.90
2017-01-18T01:35:08.523Z,70.29
2017-01-18T01:36:08.449Z,69.10
2017-01-18T01:37:08.036Z,69.66
2017-01-18T01:38:07.719Z,70.10
2017-01-18T01:39:18.227Z,69.84
2017-01-18T01:40:07.675Z,69.97
2017-01-18T01:41:08.191Z,69.90
2017-01-18T01:42:07.697Z,70.00
2017-01-18T01:43:08.593Z,70.34
2017-01-18T01:44:08.249Z,70.60
2017-01-18T01:45:08.046Z,70.72
2017-01-18T01:46:07.859Z,70.18
2017-01-18T01:47:08.442Z,70.00
2017-01-18T01:48:07.975Z,69.63
2017-01-18T01:49:08.133Z,69.20
2017-01-18T01:50:07.758Z,68.41
2017-01-18T01:51:08.416Z,68.80
2017-01-18T01:52:07.846Z,69.10
2017-01-18T01:53:08.331Z,69.46
2017-01-18T01:54:07.398Z,69.02
2017-01-18T01:55:07.639Z,68.72
2017-01-18T01:56:08.213Z,68.84
2017-01-18T01:57:07.714Z,69.83
2017-01-18T01:58:08.380Z,70.09
2017-01-18T01:59:07.876Z,70.21
2017-01-18T02:00:07.905Z,69.35
2017-01-18T02:01:07.824Z,70.11
2017-01-18T02:02:08.283Z,69.69
2017-01-18T02:03:07.921Z,69.30
2017-01-18T02:04:08.410Z,69.84
2017-01-18T02:05:07.591Z,71.16
2017-01-18T02:06:08.015Z,70.42
2017-01-18T02:07:08.192Z,70.15
2017-01-18T02:08:07.813Z,69.35
2017-01-18T02:09:08.612Z,68.68
2017-01-18T02:10:08.243Z,69.01
2017-01-18T02:11:08.014Z,68.59
2017-01-18T02:12:07.527Z,68.22
2017-01-18T02:13:07.776Z,68.72
2017-01-18T02:14:08.477Z,69.07
2017-01-18T02:15:07.758Z,69.25
2017-01-18T02:16:08.540Z,69.21
2017-01-18T02:17:08.418Z,69.67
2017-01-18T02:18:07.943Z,69.89
2017-01-18T02:19:07.744Z,69.74
2017-01-18T02:20:08.524Z,70.56
2017-01-18T02:21:08.379Z,69.84
2017-01-18T02:22:07.892Z,70.26
2017-01-18T02:23:08.377Z,69.56
2017-01-18T02:24:07.902Z,69.00
2017-01-18T02:25:08.796Z,69.53
2017-01-18T02:26:08.272Z,69.66
2017-01-18T02:27:07.771Z,69.31
2017-01-18T02:28:08.290Z,69.05
2017-01-18T02:29:07.802Z,69.06
2017-01-18T02:30:08.359Z,69.47
2017-01-18T02:31:08.218Z,69.35
2017-01-18T02:32:07.713Z,69.07
2017-01-18T02:33:08.391Z,69.29
2017-01-18T02:34:07.838Z,69.60
2017-01-18T02:35:08.743Z,69.29
2017-01-18T02:36:08.333Z,69.88
2017-01-18T02:37:08.009Z,69.91
2017-01-18T02:38:07.659Z,70.27
2017-01-18T02:39:08.141Z,70.07
2017-01-18T02:40:07.963Z,69.69
2017-01-18T02:41:07.524Z,70.27
2017-01-18T02:42:08.082Z,69.45
2017-01-18T02:43:07.945Z,69.55
2017-01-18T02:44:07.476Z,69.24
2017-01-18T02:45:08.385Z,68.82
2017-01-18T02:46:08.255Z,69.48
2017-01-18T02:47:08.019Z,69.15
2017-01-18T02:48:07.552Z,68.99
2017-01-18T02:49:08.545Z,68.86
2017-01-18T02:50:08.033Z,69.32
2017-01-18T02:51:07.704Z,69.04
2017-01-18T02:52:08.221Z,69.40
2017-01-18T02:53:07.653Z,69.40
2017-01-18T02:54:08.095Z,69.49
2017-01-18T02:55:07.671Z,69.74
2017-01-18T02:56:08.263Z,69.09
2017-01-18T02:57:07.806Z,69.49
2017-01-18T02:58:08.407Z,70.08
2017-01-18T02:59:08.061Z,70.14
2017-01-18T03:00:07.526Z,68.91
2017-01-18T03:01:08.474Z,68.91
2017-01-18T03:02:07.936Z,68.73
2017-01-18T03:03:07.732Z,68.64
2017-01-18T03:04:08.169Z,68.73
2017-01-18T03:05:07.656Z,69.42
2017-01-18T03:06:08.294Z,68.82
2017-01-18T03:07:08.123Z,69.55
2017-01-18T03:08:07.592Z,69.96
2017-01-18T03:09:07.726Z,69.62
2017-01-18T03:10:07.749Z,69.63
2017-01-18T03:11:08.232Z,69.01
2017-01-18T03:12:08.054Z,69.15
2017-01-18T03:13:07.582Z,69.21
2017-01-18T03:14:08.083Z,68.57
2017-01-18T03:15:07.693Z,69.05
2017-01-18T03:16:08.215Z,69.15
2017-01-18T03:17:08.532Z,68.85
2017-01-18T03:18:08.010Z,69.43
2017-01-18T03:19:07.540Z,69.69
2017-01-18T03:20:07.460Z,69.05
2017-01-18T03:21:07.695Z,69.23
2017-01-18T03:22:08.595Z,68.42
2017-01-18T03:23:08.075Z,68.06
2017-01-18T03:24:07.679Z,68.45
2017-01-18T03:25:08.199Z,68.95
2017-01-18T03:26:07.782Z,68.65
2017-01-18T03:27:08.312Z,69.43
2017-01-18T03:28:07.812Z,68.76
2017-01-18T03:29:08.304Z,67.95
2017-01-18T03:30:07.886Z,68.82
2017-01-18T03:31:07.624Z,69.11
2017-01-18T03:32:28.065Z,69.74
2017-01-18T03:33:07.992Z,69.90
2017-01-18T03:34:07.458Z,69.87
2017-01-18T03:35:07.933Z,69.66
2017-01-18T03:36:08.472Z,69.87
2017-01-18T03:37:08.121Z,69.21
2017-01-18T03:38:07.847Z,68.77
2017-01-18T03:39:08.302Z,69.03
2017-01-18T03:40:08.580Z,69.21
2017-01-18T03:41:08.152Z,69.56
2017-01-18T03:42:08.444Z,69.11
2017-01-18T03:43:08.233Z,69.74
2017-01-18T03:44:07.696Z,69.64
2017-01-18T03:45:08.186Z,69.58
2017-01-18T03:46:07.684Z,69.64
2017-01-18T03:47:07.791Z,69.45
2017-01-18T03:48:07.516Z,68.91
2017-01-18T03:49:07.399Z,69.29
2017-01-18T03:50:07.913Z,68.27
2017-01-18T03:51:08.434Z,69.05
2017-01-18T03:52:08.006Z,68.72
2017-01-18T03:53:07.586Z,68.52
2017-01-18T03:54:08.062Z,69.35
2017-01-18T03:55:08.444Z,69.39
2017-01-18T03:56:08.283Z,68.91
2017-01-18T03:57:07.784Z,68.92
2017-01-18T03:58:08.348Z,68.45
2017-01-18T03:59:07.879Z,68.20
2017-01-18T04:00:07.680Z,67.63
2017-01-18T04:01:08.157Z,68.18
2017-01-18T04:02:07.644Z,67.86
2017-01-18T04:03:08.192Z,68.37
2017-01-18T04:04:08.014Z,69.10
2017-01-18T04:05:07.554Z,68.38
2017-01-18T04:06:08.081Z,69.28
2017-01-18T04:07:08.756Z,68.01
2017-01-18T04:08:08.635Z,68.55
2017-01-18T04:09:08.369Z,69.03
2017-01-18T04:10:07.865Z,69.27
2017-01-18T04:11:08.345Z,69.31
2017-01-18T04:12:07.801Z,69.07
2017-01-18T04:13:08.369Z,68.32
2017-01-18T04:14:07.712Z,68.11
2017-01-18T04:15:08.525Z,68.59
2017-01-18T04:16:08.159Z,68.33
2017-01-18T04:17:07.773Z,68.02
2017-01-18T04:18:08.454Z,68.68
2017-01-18T04:19:08.307Z,68.26
2017-01-18T04:20:07.808Z,68.08
2017-01-18T04:21:08.686Z,67.88
2017-01-18T04:22:08.580Z,68.02
2017-01-18T04:23:08.211Z,68.52
2017-01-18T04:24:07.664Z,67.97
2017-01-18T04:25:08.181Z,68.78
2017-01-18T04:26:08.031Z,68.57
2017-01-18T04:27:07.748Z,68.13
2017-01-18T04:28:08.375Z,68.71
2017-01-18T04:29:07.478Z,68.73
2017-01-18T04:30:07.991Z,68.28
2017-01-18T04:31:07.612Z,68.04
2017-01-18T04:32:08.060Z,67.49
2017-01-18T04:33:07.518Z,67.26
2017-01-18T04:34:07.747Z,66.89
2017-01-18T04:35:08.618Z,68.48
2017-01-18T04:36:08.063Z,68.17
2017-01-18T04:37:07.909Z,68.16
2017-01-18T04:38:08.712Z,67.99
2017-01-18T04:39:08.403Z,67.34
2017-01-18T04:40:08.247Z,68.00
2017-01-18T04:41:08.135Z,67.75
2017-01-18T04:42:07.681Z,67.29
2017-01-18T04:43:08.414Z,67.07
2017-01-18T04:44:07.858Z,67.67
2017-01-18T04:45:08.522Z,68.21
2017-01-18T04:46:07.957Z,67.97
2017-01-18T04:47:07.637Z,68.16
2017-01-18T04:48:08.137Z,67.72
2017-01-18T04:49:07.616Z,66.95
2017-01-18T04:50:08.533Z,67.01
2017-01-18T04:51:08.331Z,68.39
2017-01-18T04:52:08.045Z,68.70
2017-01-18T04:53:07.480Z,67.78
2017-01-18T04:54:07.749Z,67.04
2017-01-18T04:55:07.540Z,68.04
2017-01-18T04:56:08.021Z,69.23
2017-01-18T04:57:07.464Z,68.45
2017-01-18T04:58:07.950Z,68.41
2017-01-18T04:59:07.571Z,68.50
2017-01-18T05:00:08.432Z,68.55
2017-01-18T05:01:07.943Z,68.23
2017-01-18T05:02:07.380Z,68.05
2017-01-18T05:03:07.788Z,67.92
2017-01-18T05:04:07.802Z,67.69
2017-01-18T05:05:08.339Z,68.34
2017-01-18T05:06:07.432Z,69.12
2017-01-18T05:07:07.908Z,68.18
2017-01-18T05:08:08.639Z,67.93
2017-01-18T05:09:08.110Z,67.78
2017-01-18T05:10:07.598Z,68.84
2017-01-18T05:11:08.099Z,68.28
2017-01-18T05:12:07.575Z,68.73
2017-01-18T05:13:08.412Z,67.75
2017-01-18T05:14:08.278Z,67.22
2017-01-18T05:15:07.884Z,67.82
2017-01-18T05:16:08.547Z,67.44
2017-01-18T05:17:08.640Z,68.45
2017-01-18T05:18:08.133Z,68.77
2017-01-18T05:19:07.586Z,68.85
2017-01-18T05:20:08.320Z,67.87
2017-01-18T05:21:08.274Z,67.59
2017-01-18T05:22:07.745Z,67.74
2017-01-18T05:23:08.415Z,68.78
2017-01-18T05:24:08.340Z,68.42
2017-01-18T05:25:10.840Z,66.87
2017-01-18T05:26:08.662Z,66.37
2017-01-18T05:27:08.163Z,67.52
2017-01-18T05:28:08.084Z,67.15
2017-01-18T05:29:17.567Z,67.40
2017-01-18T05:30:08.064Z,68.16
2017-01-18T05:31:07.958Z,68.36
2017-01-18T05:32:07.723Z,67.26
2017-01-18T05:33:08.188Z,67.81
2017-01-18T05:34:07.759Z,67.11
2017-01-18T05:35:08.244Z,67.38
2017-01-18T05:36:07.748Z,67.97
2017-01-18T05:37:08.361Z,68.67
2017-01-18T05:38:08.262Z,68.40
2017-01-18T05:39:07.843Z,67.97
2017-01-18T05:40:07.788Z,66.84
2017-01-18T05:41:08.701Z,67.56
2017-01-18T05:42:08.222Z,67.02
2017-01-18T05:43:07.680Z,67.46
2017-01-18T05:44:08.190Z,67.95
2017-01-18T05:45:07.992Z,68.05
2017-01-18T05:46:07.763Z,67.84
2017-01-18T05:47:08.580Z,68.04
2017-01-18T05:48:08.065Z,66.91
2017-01-18T05:49:08.020Z,67.06
2017-01-18T05:50:07.850Z,67.34
2017-01-18T05:51:08.455Z,67.44
2017-01-18T05:52:07.950Z,67.84
2017-01-18T05:53:07.481Z,68.28
2017-01-18T05:54:08.002Z,68.24
2017-01-18T05:55:07.464Z,68.61
2017-01-18T05:56:07.941Z,67.64
2017-01-18T05:57:07.460Z,67.81
2017-01-18T05:58:08.010Z,67.85
2017-01-18T05:59:07.483Z,68.17
2017-01-18T06:00:08.030Z,68.13
2017-01-18T06:01:07.696Z,68.07
2017-01-18T06:02:08.157Z,67.43
2017-01-18T06:03:07.799Z,67.00
2017-01-18T06:04:08.438Z,66.68
2017-01-18T06:05:07.877Z,68.00
2017-01-18T06:06:07.815Z,68.35
2017-01-18T06:07:08.362Z,68.36
2017-01-18T06:08:08.042Z,68.49
2017-01-18T06:09:08.522Z,68.74
2017-01-18T06:10:08.351Z,68.10
2017-01-18T06:11:07.818Z,68.02
2017-01-18T06:12:08.183Z,67.46
2017-01-18T06:13:07.897Z,66.89
2017-01-18T06:14:08.078Z,67.66
2017-01-18T06:15:07.568Z,67.98
2017-01-18T06:16:08.077Z,67.93
2017-01-18T06:17:07.661Z,66.83
2017-01-18T06:18:08.209Z,67.71
2017-01-18T06:19:07.990Z,68.39
2017-01-18T06:20:07.402Z,67.35
2017-01-18T06:21:07.939Z,68.06
2017-01-18T06:22:07.750Z,67.64
2017-01-18T06:23:08.325Z,67.56
2017-01-18T06:24:08.198Z,68.09
2017-01-18T06:25:07.849Z,66.93
2017-01-18T06:26:08.266Z,67.67
2017-01-18T06:27:08.122Z,66.61
2017-01-18T06:28:07.597Z,66.80
2017-01-18T06:29:08.032Z,67.67
2017-01-18T06:30:07.727Z,67.80
2017-01-18T06:31:08.206Z,67.42
2017-01-18T06:32:08.171Z,67.81
2017-01-18T06:33:08.040Z,68.48
2017-01-18T06:34:07.672Z,68.80
2017-01-18T06:35:08.601Z,68.13
2017-01-18T06:36:08.369Z,67.71
2017-01-18T06:37:07.409Z,68.54
2017-01-18T06:38:08.066Z,68.50
2017-01-18T06:39:08.428Z,68.49
2017-01-18T06:40:07.970Z,68.79
2017-01-18T06:41:07.443Z,67.97
2017-01-18T06:42:07.868Z,68.34
2017-01-18T06:43:08.404Z,67.73
2017-01-18T06:44:07.891Z,68.41
2017-01-18T06:45:09.334Z,67.63
2017-01-18T06:46:07.872Z,68.59
2017-01-18T06:47:08.509Z,68.54
2017-01-18T06:48:08.466Z,68.46
2017-01-18T06:49:07.882Z,68.93
2017-01-18T06:50:08.352Z,69.32
2017-01-18T06:51:07.767Z,68.33
2017-01-18T06:52:08.241Z,68.17
2017-01-18T06:53:08.127Z,67.61
2017-01-18T06:54:07.640Z,67.72
2017-01-18T06:55:08.208Z,68.21
2017-01-18T06:57:08.429Z,68.61
2017-01-18T06:58:07.872Z,67.89
2017-01-18T06:59:08.797Z,67.24
2017-01-18T07:00:08.638Z,67.01
2017-01-18T07:01:08.222Z,67.89
2017-01-18T07:02:08.456Z,67.30
2017-01-18T07:03:07.973Z,67.70
2017-01-18T07:04:07.820Z,67.50
2017-01-18T07:05:08.388Z,67.65
2017-01-18T07:06:07.958Z,67.97
2017-01-18T07:07:07.403Z,67.49
2017-01-18T07:08:08.358Z,66.63
2017-01-18T07:09:09.924Z,66.85
2017-01-18T07:10:08.413Z,67.09
2017-01-18T07:11:08.045Z,66.69
2017-01-18T07:12:07.640Z,66.78
2017-01-18T07:13:07.988Z,67.25
2017-01-18T07:14:07.461Z,67.78
2017-01-18T07:15:08.025Z,68.12
2017-01-18T07:16:07.460Z,68.63
2017-01-18T07:17:08.166Z,68.04
2017-01-18T07:18:07.803Z,69.11
2017-01-18T07:19:08.428Z,69.00
2017-01-18T07:20:07.972Z,68.32
2017-01-18T07:21:08.312Z,68.83
2017-01-18T07:22:07.863Z,67.05
2017-01-18T07:23:08.364Z,66.97
2017-01-18T07:24:07.827Z,67.56
2017-01-18T07:25:08.377Z,68.11
2017-01-18T07:26:07.867Z,67.99
2017-01-18T07:27:08.378Z,68.07
2017-01-18T07:28:08.079Z,68.02
2017-01-18T07:29:07.680Z,66.46
2017-01-18T07:30:18.220Z,66.82
2017-01-18T07:31:07.810Z,66.32
2017-01-18T07:32:08.430Z,67.14
2017-01-18T07:33:08.259Z,66.67
2017-01-18T07:34:07.886Z,67.20
2017-01-18T07:35:08.501Z,67.07
2017-01-18T07:36:08.360Z,66.47
2017-01-18T07:37:07.837Z,67.04
2017-01-18T07:38:08.288Z,67.46
2017-01-18T07:39:08.048Z,66.99
2017-01-18T07:40:07.971Z,67.13
2017-01-18T07:41:07.568Z,66.86
2017-01-18T07:42:08.745Z,67.98
2017-01-18T07:43:08.335Z,67.24
2017-01-18T07:44:08.191Z,66.85
2017-01-18T07:45:07.985Z,67.54
2017-01-18T07:46:07.576Z,68.37
2017-01-18T07:47:08.007Z,68.03
2017-01-18T07:48:07.723Z,66.64
2017-01-18T07:49:07.992Z,66.94
2017-01-18T07:50:07.521Z,66.45
2017-01-18T07:51:08.050Z,67.14
2017-01-18T07:52:07.931Z,67.12
2017-01-18T07:53:07.779Z,66.47
2017-01-18T07:54:08.258Z,66.63
2017-01-18T07:55:07.749Z,66.83
2017-01-18T07:56:08.429Z,66.25
2017-01-18T07:57:08.320Z,65.72
2017-01-18T07:58:07.740Z,66.43
2017-01-18T07:59:08.244Z,66.65
2017-01-18T08:00:07.785Z,66.89
2017-01-18T08:01:08.344Z,66.15
2017-01-18T08:02:07.866Z,66.25
2017-01-18T08:03:08.280Z,66.47
2017-01-18T08:04:08.072Z,66.46
2017-01-18T08:05:07.668Z,67.06
2017-01-18T08:06:08.585Z,67.14
2017-01-18T08:07:08.047Z,67.02
2017-01-18T08:08:08.013Z,66.21
2017-01-18T08:09:08.509Z,67.13
2017-01-18T08:10:07.975Z,67.10
2017-01-18T08:11:07.555Z,66.16
2017-01-18T08:12:07.575Z,65.84
2017-01-18T08:13:08.471Z,65.47
2017-01-18T08:14:07.964Z,66.16
2017-01-18T08:15:07.443Z,66.83
2017-01-18T08:16:17.896Z,66.19
2017-01-18T08:17:08.822Z,65.89
2017-01-18T08:18:08.300Z,65.92
2017-01-18T08:19:07.818Z,66.94
2017-01-18T08:20:08.324Z,67.33
2017-01-18T08:21:07.850Z,66.90
2017-01-18T08:22:07.925Z,66.59
2017-01-18T08:23:07.909Z,66.20
2017-01-18T08:24:07.809Z,67.14
2017-01-18T08:25:08.497Z,66.48
2017-01-18T08:26:07.954Z,65.77
2017-01-18T08:27:07.786Z,65.31
2017-01-18T08:28:08.666Z,64.26
2017-01-18T08:29:08.202Z,64.40
2017-01-18T08:30:07.679Z,65.23
2017-01-18T08:31:08.393Z,66.06
2017-01-18T08:32:08.129Z,65.69
2017-01-18T08:33:07.967Z,65.65
2017-01-18T08:34:07.436Z,65.45
2017-01-18T08:35:07.817Z,66.35
2017-01-18T08:36:08.316Z,66.03
2017-01-18T08:37:07.748Z,65.88
2017-01-18T08:38:08.434Z,66.32
2017-01-18T08:39:08.177Z,67.09
2017-01-18T08:40:08.039Z,65.97
2017-01-18T08:41:07.594Z,66.37
2017-01-18T08:42:08.041Z,65.13
2017-01-18T08:43:07.540Z,65.49
2017-01-18T08:44:08.047Z,65.02
2017-01-18T08:45:07.484Z,65.21
2017-01-18T08:46:07.998Z,65.60
2017-01-18T08:47:08.189Z,65.66
2017-01-18T08:48:07.665Z,64.85
2017-01-18T08:49:08.152Z,64.58
2017-01-18T08:50:07.960Z,64.81
2017-01-18T08:51:07.691Z,64.15
2017-01-18T08:52:08.226Z,64.14
2017-01-18T08:53:07.672Z,64.50
2017-01-18T08:54:07.785Z,64.27
2017-01-18T08:55:17.568Z,64.58
2017-01-18T08:56:07.991Z,65.18
2017-01-18T08:57:07.446Z,64.94
2017-01-18T08:58:07.947Z,64.44
2017-01-18T08:59:07.702Z,64.35
2017-01-18T09:00:08.128Z,64.13
2017-01-18T09:01:08.070Z,65.03
2017-01-18T09:02:07.573Z,64.25
2017-01-18T09:03:08.008Z,63.52
2017-01-18T09:04:07.612Z,63.44
2017-01-18T09:05:07.548Z,64.00
2017-01-18T09:06:08.608Z,63.96
2017-01-18T09:07:08.245Z,64.33
2017-01-18T09:08:07.901Z,64.61
2017-01-18T09:09:17.450Z,64.02
2017-01-18T09:10:07.920Z,63.59
2017-01-18T09:11:08.407Z,64.22
2017-01-18T09:12:07.829Z,64.08
2017-01-18T09:13:08.270Z,63.62
2017-01-18T09:14:07.747Z,63.69
2017-01-18T09:15:08.509Z,63.70
2017-01-18T09:16:07.967Z,63.30
2017-01-18T09:17:07.874Z,64.01
2017-01-18T09:18:08.691Z,63.83
2017-01-18T09:19:08.597Z,62.69
2017-01-18T09:20:08.178Z,62.97
2017-01-18T09:21:07.840Z,63.08
2017-01-18T09:22:08.310Z,62.82
2017-01-18T09:23:07.751Z,63.45
2017-01-18T09:24:08.233Z,62.94
2017-01-18T09:25:08.118Z,62.95
2017-01-18T09:26:07.821Z,63.43
2017-01-18T09:27:08.278Z,62.49
2017-01-18T09:28:07.944Z,62.45
2017-01-18T09:29:07.453Z,62.49
2017-01-18T09:30:08.019Z,63.52
2017-01-18T09:31:08.045Z,62.43
2017-01-18T09:32:07.603Z,62.60
2017-01-18T09:33:08.104Z,63.83
2017-01-18T09:35:07.811Z,62.60
2017-01-18T09:36:08.320Z,62.50
2017-01-18T09:37:07.952Z,63.20
2017-01-18T09:38:07.623Z,62.94
2017-01-18T09:39:18.089Z,63.30
2017-01-18T09:40:07.563Z,62.71
2017-01-18T09:41:08.111Z,63.30
2017-01-18T09:42:08.001Z,63.07
2017-01-18T09:43:07.429Z,63.29
2017-01-18T09:44:07.956Z,62.43
2017-01-18T09:45:07.452Z,62.16
2017-01-18T09:46:08.038Z,62.27
2017-01-18T09:47:07.546Z,62.17
2017-01-18T09:48:08.327Z,62.47
2017-01-18T09:49:07.798Z,61.60
2017-01-18T09:50:08.264Z,61.49
2017-01-18T09:51:07.761Z,61.47
2017-01-18T09:52:08.153Z,62.34
2017-01-18T09:53:08.027Z,62.84
2017-01-18T09:54:07.507Z,65.02
2017-01-18T09:55:08.034Z,67.35
2017-01-18T09:56:07.615Z,64.60
2017-01-18T09:57:08.167Z,63.41
2017-01-18T09:58:07.647Z,61.68
2017-01-18T09:59:08.187Z,62.35
2017-01-18T10:00:08.491Z,62.87
2017-01-18T10:01:08.328Z,62.29
2017-01-18T10:02:07.832Z,61.44
2017-01-18T10:03:08.293Z,61.83
2017-01-18T10:04:07.739Z,61.72
2017-01-18T10:05:07.720Z,61.93
2017-01-18T10:06:07.874Z,62.78
2017-01-18T10:07:07.477Z,61.92
2017-01-18T10:08:07.807Z,61.94
2017-01-18T10:09:17.686Z,62.59
2017-01-18T10:10:08.198Z,61.81
2017-01-18T10:11:08.017Z,61.27
2017-01-18T10:12:07.429Z,62.22
2017-01-18T10:13:08.266Z,61.52
2017-01-18T10:14:07.754Z,62.52
2017-01-18T10:15:07.773Z,62.73
2017-01-18T10:16:07.678Z,62.06
2017-01-18T10:17:07.840Z,61.18
2017-01-18T10:18:08.297Z,61.45
2017-01-18T10:19:07.668Z,61.35
2017-01-18T10:20:08.107Z,60.56
2017-01-18T10:21:38.642Z,61.06
2017-01-18T10:24:58.720Z,61.06
2017-01-18T10:25:08.222Z,61.42
2017-01-18T10:26:07.724Z,61.96
2017-01-18T10:27:08.663Z,60.34
2017-01-18T10:28:08.302Z,60.05
2017-01-18T10:29:08.367Z,59.50
2017-01-18T10:30:07.883Z,59.01
2017-01-18T10:31:08.419Z,60.07
2017-01-18T10:32:07.879Z,60.85
2017-01-18T10:33:18.337Z,61.76
2017-01-18T10:34:07.771Z,60.43
2017-01-18T10:35:08.290Z,60.65
2017-01-18T10:36:07.717Z,61.60
2017-01-18T10:37:08.231Z,61.75
2017-01-18T10:38:07.911Z,63.50
2017-01-18T10:39:18.368Z,62.36
2017-01-18T10:40:07.907Z,61.24
2017-01-18T10:41:07.622Z,63.60
2017-01-18T10:42:07.571Z,61.57
2017-01-18T10:43:08.075Z,61.32
2017-01-18T10:44:07.548Z,60.92
2017-01-18T10:45:08.049Z,61.58
2017-01-18T10:46:07.525Z,61.37
2017-01-18T10:47:08.444Z,67.26
2017-01-18T10:48:08.292Z,65.02
2017-01-18T10:49:08.139Z,63.58
2017-01-18T10:50:07.589Z,63.03
2017-01-18T10:51:08.389Z,60.96
2017-01-18T10:58:08.779Z,61.71
2017-01-18T10:59:08.270Z,60.24
2017-01-18T11:00:07.770Z,60.65
2017-01-18T11:01:08.249Z,60.63
2017-01-18T11:02:07.717Z,62.37
2017-01-18T11:03:07.895Z,61.45
2017-01-18T11:04:08.754Z,60.67
2017-01-18T11:05:09.187Z,60.48
2017-01-18T11:06:08.599Z,60.90
2017-01-18T11:07:08.114Z,60.78
2017-01-18T11:08:07.590Z,60.74
2017-01-18T11:09:09.070Z,61.18
2017-01-18T11:10:07.888Z,60.51
2017-01-18T11:11:18.377Z,59.73
2017-01-18T11:12:07.913Z,59.98
2017-01-18T11:13:08.033Z,60.06
2017-01-18T11:14:07.540Z,59.50
2017-01-18T11:15:08.257Z,59.81
2017-01-18T11:16:07.769Z,60.52
2017-01-18T11:17:08.301Z,59.44
2017-01-18T11:18:07.616Z,59.59
2017-01-18T11:19:08.076Z,58.51
2017-01-18T11:20:07.559Z,58.93
2017-01-18T11:21:08.495Z,58.68
2017-01-18T11:22:08.627Z,58.19
2017-01-18T11:23:08.530Z,58.61
2017-01-18T11:24:08.043Z,58.94
2017-01-18T11:25:07.608Z,58.79
2017-01-18T11:26:08.129Z,58.83
2017-01-18T11:27:07.601Z,59.04
2017-01-18T11:28:07.655Z,59.41
2017-01-18T11:29:08.582Z,59.45
2017-01-18T11:30:08.137Z,58.94
2017-01-18T11:31:07.713Z,59.43
2017-01-18T11:32:08.003Z,60.10
2017-01-18T11:33:07.691Z,59.54
2017-01-18T11:34:08.168Z,58.83
2017-01-18T11:35:08.031Z,59.24
2017-01-18T11:36:07.523Z,59.46
2017-01-18T11:37:08.309Z,58.97
2017-01-18T11:38:07.799Z,58.93
2017-01-18T11:39:08.301Z,59.03
2017-01-18T11:40:07.984Z,59.12
2017-01-18T11:41:07.412Z,59.72
2017-01-18T11:42:08.030Z,60.17
2017-01-18T11:43:07.545Z,59.57
2017-01-18T11:44:08.041Z,59.27
2017-01-18T11:45:07.515Z,58.35
2017-01-18T11:46:07.710Z,59.81
2017-01-18T11:47:08.192Z,58.85
2017-01-18T11:48:07.854Z,58.74
2017-01-18T11:49:08.043Z,58.97
2017-01-18T11:50:08.349Z,59.99
2017-01-18T11:51:07.797Z,60.36
2017-01-18T11:52:07.592Z,59.78
2017-01-18T11:53:08.019Z,59.47
2017-01-18T11:54:07.498Z,59.39
2017-01-18T11:55:08.062Z,59.01
2017-01-18T11:56:07.979Z,59.26
2017-01-18T11:57:07.422Z,58.69
2017-01-18T11:58:07.942Z,59.04
2017-01-18T11:59:07.409Z,59.69
2017-01-18T12:00:07.512Z,59.49
2017-01-18T12:01:08.173Z,59.73
2017-01-18T12:02:07.980Z,59.64
2017-01-18T12:03:07.464Z,60.30
2017-01-18T12:04:07.988Z,59.61
2017-01-18T12:05:07.788Z,61.25
2017-01-18T12:06:08.566Z,60.33
2017-01-18T12:07:08.255Z,60.22
2017-01-18T12:08:07.812Z,59.32
2017-01-18T12:09:07.508Z,59.55
2017-01-18T12:10:07.978Z,59.74
2017-01-18T12:11:07.919Z,59.48
2017-01-18T12:12:08.715Z,61.08
2017-01-18T12:13:08.157Z,60.43
2017-01-18T12:14:07.656Z,60.05
2017-01-18T12:15:08.233Z,60.44
2017-01-18T12:16:08.265Z,59.80
2017-01-18T12:17:07.853Z,59.97
2017-01-18T12:18:08.728Z,60.35
2017-01-18T12:19:08.193Z,59.93
2017-01-18T12:20:08.095Z,60.25
2017-01-18T12:21:07.518Z,60.36
2017-01-18T12:22:07.583Z,59.65
2017-01-18T12:23:08.014Z,59.60
2017-01-18T12:24:07.721Z,59.35
2017-01-18T12:25:08.322Z,60.48
2017-01-18T12:26:07.822Z,59.67
2017-01-18T12:27:07.844Z,60.16
2017-01-18T12:28:08.345Z,60.63
2017-01-18T12:29:08.098Z,60.67
2017-01-18T12:30:07.603Z,60.35
2017-01-18T12:31:08.059Z,60.25
2017-01-18T12:32:07.508Z,59.98
2017-01-18T12:33:07.573Z,60.83
2017-01-18T12:34:08.119Z,60.21
2017-01-18T12:35:08.230Z,60.95
2017-01-18T12:36:07.656Z,60.80
2017-01-18T12:37:07.668Z,60.36
2017-01-18T12:38:07.689Z,59.70
2017-01-18T12:39:08.304Z,59.60
2017-01-18T12:40:07.858Z,59.70
2017-01-18T12:41:08.724Z,59.69
2017-01-18T12:42:09.139Z,59.47
2017-01-18T12:43:07.617Z,59.69
2017-01-18T12:44:08.089Z,60.15
2017-01-18T12:45:08.227Z,60.38
2017-01-18T12:46:07.678Z,59.80
2017-01-18T12:47:07.619Z,60.57
2017-01-18T12:48:08.080Z,60.25
2017-01-18T12:49:07.606Z,59.26
2017-01-18T12:50:08.156Z,58.90
2017-01-18T12:51:07.693Z,59.63
2017-01-18T12:52:08.195Z,60.20
2017-01-18T12:53:08.099Z,59.76
2017-01-18T12:54:07.548Z,60.01
2017-01-18T12:55:07.814Z,60.41
2017-01-18T12:56:07.727Z,60.07
2017-01-18T12:57:07.654Z,60.01
2017-01-18T12:58:08.489Z,59.64
2017-01-18T12:59:08.356Z,59.44
2017-01-18T13:00:08.267Z,59.58
2017-01-18T13:01:07.761Z,59.69
2017-01-18T13:02:08.320Z,60.15